Ship Status Report: callsign BATFR20

sailwx.info

Track history (hours):
 
Tides and Currents Weather Stations Pressure Air Temp Water Temp Dewpoint Dewpoint Depression Visibility Wind Speed Wind Dir Waves Ship Positions

Callsign BATFR20 (name unknown)

Last reported at 2017-Jan-08 05:00 UTC. Time now 2017-Jan-25 01:33 UTC.
Position N 43°06' E 005°30'.
Warning: this ship's position is 16 days out of date.

Wind from 320 at 14 knots

Barometer 1021.6 mb
Air temperature 7.5 ° C
Dewpoint -0.2 ° C

Date/timePositionNaut miles runAvg speedWind from/ knotsBaromVisibWave heightAir tempDewpointWater temp
2017-Jan-08 05:00N 43°06' E 005°30'1817.8 320 / 141021.6 7.5-0.2
2017-Jan-08 04:00N 42°54' E 005°48'1414.5 320 / 61022.3 9.0 4.7
2017-Jan-08 03:00N 42°48' E 006°06'1514.5 350 / 101022.3 9.4 4.9
2017-Jan-08 02:00N 42°42' E 006°24'1817.9 010 / 21023.3 9.5 4.7
2017-Jan-08 01:00N 42°30' E 006°42'1514.6 260 / 81023.2 10.2 5.4
2017-Jan-08 00:00N 42°24' E 007°00'1514.6 250 / 91024.1 11.0 5.5
2017-Jan-07 23:00N 42°18' E 007°18'3216.1 210 / 131024.7 11.5 4.9
2017-Jan-07 21:00N 42°00' E 007°54'1514.7 200 / 51026.5 9.7 4.9
2017-Jan-07 20:00N 41°54' E 008°12'1514.7 180 / 71027.0 9.2 5.0
2017-Jan-07 19:00N 41°48' E 008°30'1514.7 010 / 61027.1 8.9 3.7
2017-Jan-07 18:00N 41°42' E 008°48'4 0.4 260 / 71027.1 7.9 2.0
2017-Jan-07 06:00N 41°42' E 008°54'1313.4 100 / 131027.7 2.4-5.5
2017-Jan-07 05:00N 41°42' E 008°36'1818.0 070 / 61026.8 7.5-0.8
2017-Jan-07 04:00N 41°54' E 008°18'1514.7 090 / 101026.8 8.2-0.5
2017-Jan-07 03:00N 42°00' E 008°00'1918.8 060 / 101026.6 8.9-1.0
2017-Jan-07 02:00N 42°06' E 007°36'1817.9 050 / 121026.4 9.0-0.8
2017-Jan-07 01:00N 42°18' E 007°18'1514.6 080 / 81026.5 9.0-0.6
2017-Jan-07 00:00N 42°24' E 007°00'1817.9 130 / 71026.6 9.4-0.3
2017-Jan-06 23:00N 42°36' E 006°42'1514.5 150 / 91026.6 9.9 0.2
2017-Jan-06 22:00N 42°42' E 006°24'1514.5 140 / 141026.1 9.9 0.9
2017-Jan-06 21:00N 42°48' E 006°06'1817.8 150 / 81025.7 10.2 1.2
2017-Jan-06 20:00N 43°00' E 005°48'1414.5 060 / 131025.5 9.4 2.0
2017-Jan-06 19:00N 43°06' E 005°30'1312.8 360 / 81026.3 7.2-1.1
2017-Jan-06 18:00N 43°18' E 005°24'7 0.7 1027.3 3.7-6.8
2017-Jan-06 08:00N 43°12' E 005°18'1918.5 350 / 181026.1 4.7-2.7
2017-Jan-06 07:00N 43°06' E 005°42'1918.5 050 / 111026.0 7.9-2.3
2017-Jan-06 06:00N 43°00' E 006°06'2221.9 020 / 161024.6 7.7-1.8
2017-Jan-06 05:00N 43°00' E 006°36'2221.9 090 / 171025.1 8.7-3.6
2017-Jan-06 04:00N 43°00' E 007°06'1817.6 070 / 231024.4 8.4-3.8
2017-Jan-06 03:00N 43°00' E 007°30'2221.9 060 / 251024.0 8.2-3.8
2017-Jan-06 02:00N 43°00' E 008°00'2221.9 050 / 261023.5 8.2-7.2
2017-Jan-06 01:00N 43°00' E 008°30'1817.6 050 / 261022.8 8.2-7.2
2017-Jan-06 00:00N 43°00' E 008°54'2322.7 060 / 261022.6 7.9-8.6
2017-Jan-05 23:00N 43°06' E 009°24'1817.8 040 / 231021.8 7.7-12.2
2017-Jan-05 22:00N 42°54' E 009°42'1918.5 040 / 281018.8 8.2-6.7
2017-Jan-05 21:00N 42°36' E 009°36'1818.0 040 / 261018.2 8.2-8.3
2017-Jan-05 20:00N 42°18' E 009°36'1918.5 030 / 241017.4 8.4-4.5
2017-Jan-05 19:00N 42°00' E 009°30'1918.5 050 / 281016.5 7.5-1.3
2017-Jan-05 18:00N 41°42' E 009°24'7 0.7 020 / 191015.4 9.4-3.8
2017-Jan-05 07:00N 41°36' E 009°18'1312.8 020 / 201009.8 12.2-4.0
2017-Jan-05 06:00N 41°24' E 009°24'1919.0 1007.4 11.5 1.7
2017-Jan-05 05:00N 41°18' E 009°00'1818.1 030 / 21008.2 12.5 5.0
2017-Jan-05 04:00N 41°30' E 008°42'3919.7 040 / 91007.9 12.5 5.9
2017-Jan-05 02:00N 41°54' E 008°00'1818.0 320 / 251008.2 12.7 4.7
2017-Jan-05 01:00N 42°06' E 007°42'1817.9 310 / 281008.6 11.9 2.9
2017-Jan-05 00:00N 42°18' E 007°24'2222.4 310 / 321008.5 11.9 3.9
2017-Jan-04 23:00N 42°36' E 007°06'1817.9 300 / 321008.6 11.4 3.7
2017-Jan-04 22:00N 42°48' E 006°48'1918.6 300 / 351008.3 11.4 2.9
2017-Jan-04 21:00N 42°54' E 006°24'2322.8 290 / 291010.6 10.4 0.4
2017-Jan-04 20:00N 43°00' E 005°54'1918.5 310 / 331012.4 9.5 0.4
2017-Jan-04 19:00N 43°06' E 005°30'1514.8 320 / 411013.5 9.4-2.2
2017-Jan-04 18:00N 43°18' E 005°18'6 0.5 320 / 421011.1 8.2-4.8
2017-Jan-04 06:00N 43°12' E 005°18'1817.8 320 / 161019.2 6.7 1.4
2017-Jan-04 05:00N 43°00' E 005°36'1918.6 310 / 111019.2 11.4 3.7
2017-Jan-04 04:00N 42°54' E 006°00'1817.8 310 / 91019.5 12.0 5.9
2017-Jan-04 03:00N 42°42' E 006°18'2121.4 260 / 61020.2 12.4 1.2
2017-Jan-04 02:00N 42°30' E 006°42'1514.6 250 / 21020.7 12.4 2.9
2017-Jan-04 01:00N 42°24' E 007°00'3919.6 010 / 51020.5 12.4 3.0
2017-Jan-03 23:00N 42°00' E 007°42'1514.7 030 / 201019.6 12.9 4.4
2017-Jan-03 22:00N 41°54' E 008°00'1818.0 040 / 251018.5 13.7 3.4
2017-Jan-03 21:00N 41°42' E 008°18'2221.6 100 / 101019.7 13.0 9.2
2017-Jan-03 20:00N 41°30' E 008°42'1818.1 090 / 41019.6 12.4 8.0
2017-Jan-03 19:00N 41°18' E 009°00'1919.0 050 / 151018.8 11.7 7.0
2017-Jan-03 18:00N 41°24' E 009°24'1312.8 040 / 241018.5 12.7 7.9
2017-Jan-03 17:00N 41°36' E 009°18'7 0.7 020 / 171017.6 12.0 7.2
2017-Jan-03 07:00N 41°30' E 009°24'1312.8 260 / 341014.4 13.7 7.7
2017-Jan-03 06:00N 41°18' E 009°18'3416.9 280 / 261016.2 14.4 9.2
2017-Jan-03 04:00N 41°30' E 008°36'1818.0 280 / 251017.3 14.7 9.0
2017-Jan-03 03:00N 41°42' E 008°18'1514.7 270 / 281017.2 14.5 8.9
2017-Jan-03 02:00N 41°48' E 008°00'1818.0 270 / 291017.5 14.4 8.9
2017-Jan-03 01:00N 42°00' E 007°42'1818.0 270 / 311017.6 14.2 9.0
2017-Jan-03 00:00N 42°12' E 007°24'1918.8 260 / 311017.5 13.9 9.0
2017-Jan-02 23:00N 42°18' E 007°00'1817.9 270 / 321017.6 13.7 8.2
2017-Jan-02 22:00N 42°30' E 006°42'1817.9 270 / 281018.3 13.5 8.9
2017-Jan-02 21:00N 42°42' E 006°24'1514.5 280 / 231018.910.8 13.2 9.5
2017-Jan-02 20:00N 42°48' E 006°06'3617.8 270 / 231019.0 12.9 9.0
2017-Jan-02 18:00N 43°06' E 005°24'0 0.0 270 / 101019.5 11.7 6.2
2017-Jan-02 06:00N 43°06' E 005°24'1414.5 220 / 131021.4 13.2 7.9
2017-Jan-02 05:00N 43°00' E 005°42'2121.3 240 / 131021.3 13.2 7.4
2017-Jan-02 04:00N 42°48' E 006°06'1817.9 210 / 171021.5 13.7 8.9
2017-Jan-02 03:00N 42°36' E 006°24'1918.7 220 / 211021.4 13.7 8.2
2017-Jan-02 02:00N 42°30' E 006°48'1817.9 220 / 201022.0 13.7 8.2
2017-Jan-02 01:00N 42°18' E 007°06'2121.5 220 / 191022.3 13.7 7.7
2017-Jan-02 00:00N 42°06' E 007°30'1514.7 240 / 191022.8 13.7 7.7
2017-Jan-01 23:00N 42°00' E 007°48'1818.0 220 / 171023.0 14.0 8.0
2017-Jan-01 22:00N 41°48' E 008°06'1818.0 220 / 121024.0 13.7 6.7
2017-Jan-01 21:00N 41°36' E 008°24'1918.9 260 / 41024.510.8 13.5 4.9
2017-Jan-01 20:00N 41°30' E 008°48'1818.1 310 / 41024.3 12.9 5.2
2017-Jan-01 19:00N 41°18' E 009°06'1818.1 310 / 61024.2 13.0 7.0
2017-Jan-01 18:00N 41°30' E 009°24'0 0.0 050 / 21024.3 12.0 6.7
2016-Dec-31 06:00N 41°30' E 009°24'1515.0 020 / 151031.2 11.4 2.2
2016-Dec-31 05:00N 41°18' E 009°12'1919.0 040 / 211030.9 11.2 1.2
2016-Dec-31 04:00N 41°24' E 008°48'3618.0 090 / 81031.4 10.9 2.9
2016-Dec-31 02:00N 41°48' E 008°12'1918.9 230 / 151031.7 12.9 6.7
2016-Dec-31 01:00N 41°54' E 007°48'1818.0 350 / 71032.3 12.9 2.4
2016-Dec-31 00:00N 42°06' E 007°30'1918.8 030 / 171031.9 12.7 5.5
2016-Dec-30 23:00N 42°12' E 007°06'1817.9 040 / 161033.1 11.7 5.2
2016-Dec-30 22:00N 42°24' E 006°48'1817.9 040 / 121033.7 11.9 5.9
2016-Dec-30 21:00N 42°36' E 006°30'1918.6 010 / 71033.910.8 11.9 6.2
2016-Dec-30 20:00N 42°42' E 006°06'2121.3 330 / 61033.9 12.0 6.4
2016-Dec-30 19:00N 42°54' E 005°42'1817.8 330 / 71034.1 12.2 6.5
2016-Dec-30 18:00N 43°06' E 005°24'7 0.6 320 / 71034.4 12.2 6.7
2016-Dec-30 06:00N 43°12' E 005°18'2121.2 080 / 91036.0 11.4 5.4
2016-Dec-30 05:00N 43°00' E 005°42'2121.3 070 / 81035.9 11.7 5.5
2016-Dec-30 04:00N 42°48' E 006°06'1817.9 080 / 181035.9 11.9 5.2
2016-Dec-30 03:00N 42°36' E 006°24'1514.6 050 / 161036.0 11.9 3.7
2016-Dec-30 02:00N 42°30' E 006°42'2121.4 060 / 221035.6 11.9 1.0
2016-Dec-30 01:00N 42°18' E 007°06'1817.9 050 / 211035.0 11.9 2.4
2016-Dec-30 00:00N 42°06' E 007°24'1918.8 030 / 171034.3 12.5 3.5
2016-Dec-29 23:00N 42°00' E 007°48'1818.0 340 / 141033.9 13.4 3.9
2016-Dec-29 22:00N 41°48' E 008°06'1818.0 280 / 91033.7 13.5 4.7
2016-Dec-29 21:00N 41°36' E 008°24'1918.9 090 / 151034.010.8 12.9 2.2
2016-Dec-29 20:00N 41°30' E 008°48'2221.6 090 / 271034.0 11.7 1.2
2016-Dec-29 19:00N 41°18' E 009°12'1515.0 020 / 231033.8 10.7 0.4
2016-Dec-29 18:00N 41°30' E 009°24'6 0.8 020 / 261034.7 11.4 0.2
2016-Dec-29 10:00N 41°36' E 009°24'0 0.0 040 / 171034.8 12.5 4.5
2016-Dec-29 09:00N 41°36' E 009°24'0 0.0 050 / 221032.9 12.9 4.9
2016-Dec-29 06:00N 41°36' E 009°24'1918.6 340 / 81030.9 12.7 6.7
2016-Dec-29 05:00N 41°18' E 009°18'   020 / 91030.1 13.4 8.2
Track history (hours):
 
Tides and Currents Weather Stations Pressure Air Temp Water Temp Dewpoint Dewpoint Depression Visibility Wind Speed Wind Dir Waves Ship Positions

Callsign BATFR20 (name unknown)

Last reported at 2017-Jan-08 05:00 UTC. Time now 2017-Jan-25 01:33 UTC.
Position N 43°06' E 005°30'.
Warning: this ship's position is 16 days out of date.

Wind from 320 at 14 knots

Barometer 1021.6 mb
Air temperature 7.5 ° C
Dewpoint -0.2 ° C

Date/timePositionNaut miles runAvg speedWind from/ knotsBaromVisibWave heightAir tempDewpointWater temp
2017-Jan-08 05:00N 43°06' E 005°30'1817.8 320 / 141021.6 7.5-0.2
2017-Jan-08 04:00N 42°54' E 005°48'1414.5 320 / 61022.3 9.0 4.7
2017-Jan-08 03:00N 42°48' E 006°06'1514.5 350 / 101022.3 9.4 4.9
2017-Jan-08 02:00N 42°42' E 006°24'1817.9 010 / 21023.3 9.5 4.7
2017-Jan-08 01:00N 42°30' E 006°42'1514.6 260 / 81023.2 10.2 5.4
2017-Jan-08 00:00N 42°24' E 007°00'1514.6 250 / 91024.1 11.0 5.5
2017-Jan-07 23:00N 42°18' E 007°18'3216.1 210 / 131024.7 11.5 4.9
2017-Jan-07 21:00N 42°00' E 007°54'1514.7 200 / 51026.5 9.7 4.9
2017-Jan-07 20:00N 41°54' E 008°12'1514.7 180 / 71027.0 9.2 5.0
2017-Jan-07 19:00N 41°48' E 008°30'1514.7 010 / 61027.1 8.9 3.7
2017-Jan-07 18:00N 41°42' E 008°48'4 0.4 260 / 71027.1 7.9 2.0
2017-Jan-07 06:00N 41°42' E 008°54'1313.4 100 / 131027.7 2.4-5.5
2017-Jan-07 05:00N 41°42' E 008°36'1818.0 070 / 61026.8 7.5-0.8
2017-Jan-07 04:00N 41°54' E 008°18'1514.7 090 / 101026.8 8.2-0.5
2017-Jan-07 03:00N 42°00' E 008°00'1918.8 060 / 101026.6 8.9-1.0
2017-Jan-07 02:00N 42°06' E 007°36'1817.9 050 / 121026.4 9.0-0.8
2017-Jan-07 01:00N 42°18' E 007°18'1514.6 080 / 81026.5 9.0-0.6
2017-Jan-07 00:00N 42°24' E 007°00'1817.9 130 / 71026.6 9.4-0.3
2017-Jan-06 23:00N 42°36' E 006°42'1514.5 150 / 91026.6 9.9 0.2
2017-Jan-06 22:00N 42°42' E 006°24'1514.5 140 / 141026.1 9.9 0.9
2017-Jan-06 21:00N 42°48' E 006°06'1817.8 150 / 81025.7 10.2 1.2
2017-Jan-06 20:00N 43°00' E 005°48'1414.5 060 / 131025.5 9.4 2.0
2017-Jan-06 19:00N 43°06' E 005°30'1312.8 360 / 81026.3 7.2-1.1
2017-Jan-06 18:00N 43°18' E 005°24'7 0.7 1027.3 3.7-6.8
2017-Jan-06 08:00N 43°12' E 005°18'1918.5 350 / 181026.1 4.7-2.7
2017-Jan-06 07:00N 43°06' E 005°42'1918.5 050 / 111026.0 7.9-2.3
2017-Jan-06 06:00N 43°00' E 006°06'2221.9 020 / 161024.6 7.7-1.8
2017-Jan-06 05:00N 43°00' E 006°36'2221.9 090 / 171025.1 8.7-3.6
2017-Jan-06 04:00N 43°00' E 007°06'1817.6 070 / 231024.4 8.4-3.8
2017-Jan-06 03:00N 43°00' E 007°30'2221.9 060 / 251024.0 8.2-3.8
2017-Jan-06 02:00N 43°00' E 008°00'2221.9 050 / 261023.5 8.2-7.2
2017-Jan-06 01:00N 43°00' E 008°30'1817.6 050 / 261022.8 8.2-7.2
2017-Jan-06 00:00N 43°00' E 008°54'2322.7 060 / 261022.6 7.9-8.6
2017-Jan-05 23:00N 43°06' E 009°24'1817.8 040 / 231021.8 7.7-12.2
2017-Jan-05 22:00N 42°54' E 009°42'1918.5 040 / 281018.8 8.2-6.7
2017-Jan-05 21:00N 42°36' E 009°36'1818.0 040 / 261018.2 8.2-8.3
2017-Jan-05 20:00N 42°18' E 009°36'1918.5 030 / 241017.4 8.4-4.5
2017-Jan-05 19:00N 42°00' E 009°30'1918.5 050 / 281016.5 7.5-1.3
2017-Jan-05 18:00N 41°42' E 009°24'7 0.7 020 / 191015.4 9.4-3.8
2017-Jan-05 07:00N 41°36' E 009°18'1312.8 020 / 201009.8 12.2-4.0
2017-Jan-05 06:00N 41°24' E 009°24'1919.0 1007.4 11.5 1.7
2017-Jan-05 05:00N 41°18' E 009°00'1818.1 030 / 21008.2 12.5 5.0
2017-Jan-05 04:00N 41°30' E 008°42'3919.7 040 / 91007.9 12.5 5.9
2017-Jan-05 02:00N 41°54' E 008°00'1818.0 320 / 251008.2 12.7 4.7
2017-Jan-05 01:00N 42°06' E 007°42'1817.9 310 / 281008.6 11.9 2.9
2017-Jan-05 00:00N 42°18' E 007°24'2222.4 310 / 321008.5 11.9 3.9
2017-Jan-04 23:00N 42°36' E 007°06'1817.9 300 / 321008.6 11.4 3.7
2017-Jan-04 22:00N 42°48' E 006°48'1918.6 300 / 351008.3 11.4 2.9
2017-Jan-04 21:00N 42°54' E 006°24'2322.8 290 / 291010.6 10.4 0.4
2017-Jan-04 20:00N 43°00' E 005°54'1918.5 310 / 331012.4 9.5 0.4
2017-Jan-04 19:00N 43°06' E 005°30'1514.8 320 / 411013.5 9.4-2.2
2017-Jan-04 18:00N 43°18' E 005°18'6 0.5 320 / 421011.1 8.2-4.8
2017-Jan-04 06:00N 43°12' E 005°18'1817.8 320 / 161019.2 6.7 1.4
2017-Jan-04 05:00N 43°00' E 005°36'1918.6 310 / 111019.2 11.4 3.7
2017-Jan-04 04:00N 42°54' E 006°00'1817.8 310 / 91019.5 12.0 5.9
2017-Jan-04 03:00N 42°42' E 006°18'2121.4 260 / 61020.2 12.4 1.2
2017-Jan-04 02:00N 42°30' E 006°42'1514.6 250 / 21020.7 12.4 2.9
2017-Jan-04 01:00N 42°24' E 007°00'3919.6 010 / 51020.5 12.4 3.0
2017-Jan-03 23:00N 42°00' E 007°42'1514.7 030 / 201019.6 12.9 4.4
2017-Jan-03 22:00N 41°54' E 008°00'1818.0 040 / 251018.5 13.7 3.4
2017-Jan-03 21:00N 41°42' E 008°18'2221.6 100 / 101019.7 13.0 9.2
2017-Jan-03 20:00N 41°30' E 008°42'1818.1 090 / 41019.6 12.4 8.0
2017-Jan-03 19:00N 41°18' E 009°00'1919.0 050 / 151018.8 11.7 7.0
2017-Jan-03 18:00N 41°24' E 009°24'1312.8 040 / 241018.5 12.7 7.9
2017-Jan-03 17:00N 41°36' E 009°18'7 0.7 020 / 171017.6 12.0 7.2
2017-Jan-03 07:00N 41°30' E 009°24'1312.8 260 / 341014.4 13.7 7.7
2017-Jan-03 06:00N 41°18' E 009°18'3416.9 280 / 261016.2 14.4 9.2
2017-Jan-03 04:00N 41°30' E 008°36'1818.0 280 / 251017.3 14.7 9.0
2017-Jan-03 03:00N 41°42' E 008°18'1514.7 270 / 281017.2 14.5 8.9
2017-Jan-03 02:00N 41°48' E 008°00'1818.0 270 / 291017.5 14.4 8.9
2017-Jan-03 01:00N 42°00' E 007°42'1818.0 270 / 311017.6 14.2 9.0
2017-Jan-03 00:00N 42°12' E 007°24'1918.8 260 / 311017.5 13.9 9.0
2017-Jan-02 23:00N 42°18' E 007°00'1817.9 270 / 321017.6 13.7 8.2
2017-Jan-02 22:00N 42°30' E 006°42'1817.9 270 / 281018.3 13.5 8.9
2017-Jan-02 21:00N 42°42' E 006°24'1514.5 280 / 231018.910.8 13.2 9.5
2017-Jan-02 20:00N 42°48' E 006°06'3617.8 270 / 231019.0 12.9 9.0
2017-Jan-02 18:00N 43°06' E 005°24'0 0.0 270 / 101019.5 11.7 6.2
2017-Jan-02 06:00N 43°06' E 005°24'1414.5 220 / 131021.4 13.2 7.9
2017-Jan-02 05:00N 43°00' E 005°42'2121.3 240 / 131021.3 13.2 7.4
2017-Jan-02 04:00N 42°48' E 006°06'1817.9 210 / 171021.5 13.7 8.9
2017-Jan-02 03:00N 42°36' E 006°24'1918.7 220 / 211021.4 13.7 8.2
2017-Jan-02 02:00N 42°30' E 006°48'1817.9 220 / 201022.0 13.7 8.2
2017-Jan-02 01:00N 42°18' E 007°06'2121.5 220 / 191022.3 13.7 7.7
2017-Jan-02 00:00N 42°06' E 007°30'1514.7 240 / 191022.8 13.7 7.7
2017-Jan-01 23:00N 42°00' E 007°48'1818.0 220 / 171023.0 14.0 8.0
2017-Jan-01 22:00N 41°48' E 008°06'1818.0 220 / 121024.0 13.7 6.7
2017-Jan-01 21:00N 41°36' E 008°24'1918.9 260 / 41024.510.8 13.5 4.9
2017-Jan-01 20:00N 41°30' E 008°48'1818.1 310 / 41024.3 12.9 5.2
2017-Jan-01 19:00N 41°18' E 009°06'1818.1 310 / 61024.2 13.0 7.0
2017-Jan-01 18:00N 41°30' E 009°24'0 0.0 050 / 21024.3 12.0 6.7
2016-Dec-31 06:00N 41°30' E 009°24'1515.0 020 / 151031.2 11.4 2.2
2016-Dec-31 05:00N 41°18' E 009°12'1919.0 040 / 211030.9 11.2 1.2
2016-Dec-31 04:00N 41°24' E 008°48'3618.0 090 / 81031.4 10.9 2.9
2016-Dec-31 02:00N 41°48' E 008°12'1918.9 230 / 151031.7 12.9 6.7
2016-Dec-31 01:00N 41°54' E 007°48'1818.0 350 / 71032.3 12.9 2.4
2016-Dec-31 00:00N 42°06' E 007°30'1918.8 030 / 171031.9 12.7 5.5
2016-Dec-30 23:00N 42°12' E 007°06'1817.9 040 / 161033.1 11.7 5.2
2016-Dec-30 22:00N 42°24' E 006°48'1817.9 040 / 121033.7 11.9 5.9
2016-Dec-30 21:00N 42°36' E 006°30'1918.6 010 / 71033.910.8 11.9 6.2
2016-Dec-30 20:00N 42°42' E 006°06'2121.3 330 / 61033.9 12.0 6.4
2016-Dec-30 19:00N 42°54' E 005°42'1817.8 330 / 71034.1 12.2 6.5
2016-Dec-30 18:00N 43°06' E 005°24'7 0.6 320 / 71034.4 12.2 6.7
2016-Dec-30 06:00N 43°12' E 005°18'2121.2 080 / 91036.0 11.4 5.4
2016-Dec-30 05:00N 43°00' E 005°42'2121.3 070 / 81035.9 11.7 5.5
2016-Dec-30 04:00N 42°48' E 006°06'1817.9 080 / 181035.9 11.9 5.2
2016-Dec-30 03:00N 42°36' E 006°24'1514.6 050 / 161036.0 11.9 3.7
2016-Dec-30 02:00N 42°30' E 006°42'2121.4 060 / 221035.6 11.9 1.0
2016-Dec-30 01:00N 42°18' E 007°06'1817.9 050 / 211035.0 11.9 2.4
2016-Dec-30 00:00N 42°06' E 007°24'1918.8 030 / 171034.3 12.5 3.5
2016-Dec-29 23:00N 42°00' E 007°48'1818.0 340 / 141033.9 13.4 3.9
2016-Dec-29 22:00N 41°48' E 008°06'1818.0 280 / 91033.7 13.5 4.7
2016-Dec-29 21:00N 41°36' E 008°24'1918.9 090 / 151034.010.8 12.9 2.2
2016-Dec-29 20:00N 41°30' E 008°48'2221.6 090 / 271034.0 11.7 1.2
2016-Dec-29 19:00N 41°18' E 009°12'1515.0 020 / 231033.8 10.7 0.4
2016-Dec-29 18:00N 41°30' E 009°24'6 0.8 020 / 261034.7 11.4 0.2
2016-Dec-29 10:00N 41°36' E 009°24'0 0.0 040 / 171034.8 12.5 4.5
2016-Dec-29 09:00N 41°36' E 009°24'0 0.0 050 / 221032.9 12.9 4.9
2016-Dec-29 06:00N 41°36' E 009°24'1918.6 340 / 81030.9 12.7 6.7
2016-Dec-29 05:00N 41°18' E 009°18'   020 / 91030.1 13.4 8.2

Dump ship's entire track history